createdAt,value
2018-07-21T06:33:17.523Z,51.31
2018-07-21T06:34:17.592Z,50.24
2018-07-21T06:35:17.422Z,49
2018-07-21T06:36:17.568Z,48.26
2018-07-21T06:37:17.497Z,46.53
2018-07-21T06:38:17.247Z,46.65
2018-07-21T06:39:17.584Z,45.23
2018-07-21T06:40:17.606Z,43.76
2018-07-21T06:41:17.925Z,44.13
2018-07-21T06:42:17.678Z,43.93
2018-07-21T06:43:19.462Z,44.59
2018-07-21T06:44:18.555Z,43.93
2018-07-21T06:45:17.522Z,44.01
2018-07-21T06:46:18.001Z,43.24
2018-07-21T06:47:18.159Z,44.73
2018-07-21T06:48:18.201Z,43.38
2018-07-21T06:49:18.241Z,43.7
2018-07-21T06:50:18.165Z,42.57
2018-07-21T06:51:18.752Z,42
2018-07-21T06:52:18.964Z,41.8
2018-07-21T06:53:19.411Z,41.33
2018-07-21T06:54:19.629Z,41.27
2018-07-21T06:55:19.484Z,38.84
2018-07-21T06:56:19.509Z,39.5
2018-07-21T06:57:19.825Z,40.51
2018-07-21T06:58:19.566Z,38.46
2018-07-21T06:59:20.068Z,38.64
2018-07-21T07:00:36.623Z,38.56
2018-07-21T07:01:36.583Z,38.07
2018-07-21T07:02:36.495Z,37.69
2018-07-21T07:03:36.605Z,37.51
2018-07-21T07:04:36.662Z,36.82
2018-07-21T07:05:37.322Z,38.68
2018-07-21T07:06:36.884Z,37.01
2018-07-21T07:07:36.670Z,37.79
2018-07-21T07:08:37.090Z,36.61
2018-07-21T07:09:36.893Z,36.63
2018-07-21T07:10:37.227Z,36.45
2018-07-21T07:11:37.010Z,38.24
2018-07-21T07:12:38.099Z,37.66
2018-07-21T07:13:37.299Z,37.88
2018-07-21T07:14:37.794Z,37.29
2018-07-21T07:15:37.763Z,36.93
2018-07-21T07:16:37.526Z,36.14
2018-07-21T07:17:38.239Z,36.44
2018-07-21T07:18:38.279Z,35.47
2018-07-21T07:19:38.331Z,34
2018-07-21T07:20:38.345Z,34
2018-07-21T07:21:38.390Z,35.05
2018-07-21T07:22:38.523Z,34.56
2018-07-21T07:23:38.565Z,34.51
2018-07-21T07:24:39.062Z,35.18
2018-07-21T07:25:39.107Z,36.29
2018-07-21T07:26:39.158Z,34.82
2018-07-21T07:27:39.575Z,34.94
2018-07-21T07:28:40.137Z,35.35
2018-07-21T07:29:40.229Z,34.58
2018-07-21T07:30:40.138Z,33.39
2018-07-21T07:31:40.026Z,34.27
2018-07-21T07:32:40.371Z,34.86
2018-07-21T07:33:39.894Z,33.09
2018-07-21T07:34:40.284Z,34.18
2018-07-21T07:35:40.258Z,34.89
2018-07-21T07:36:40.491Z,32.14
2018-07-21T07:37:40.302Z,33.92
2018-07-21T07:38:40.905Z,32.25
2018-07-21T07:39:40.659Z,32.15
2018-07-21T07:40:40.910Z,33.42
2018-07-21T07:41:40.478Z,34.12
2018-07-21T07:42:40.477Z,34.23
2018-07-21T07:43:40.846Z,31.97
2018-07-21T07:44:40.949Z,33.06
2018-07-21T07:45:40.383Z,32.28
2018-07-21T07:46:40.889Z,31.51
2018-07-21T07:47:40.923Z,31.81
2018-07-21T07:48:40.999Z,32.18
2018-07-21T07:49:41.285Z,32.17
2018-07-21T07:50:41.588Z,32.35
2018-07-21T07:51:41.395Z,32.35
2018-07-21T07:52:41.832Z,32.17
2018-07-21T07:53:41.891Z,32.95
2018-07-21T07:54:41.660Z,31.79
2018-07-21T07:55:41.686Z,31.6
2018-07-21T07:56:41.850Z,32.02
2018-07-21T07:57:42.101Z,31.65
2018-07-21T07:58:42.825Z,31.67
2018-07-21T07:59:42.564Z,31.17
2018-07-21T08:00:43.517Z,30.38
2018-07-21T08:01:42.700Z,31.87
2018-07-21T08:02:43.280Z,30.79
2018-07-21T08:03:42.955Z,30.09
2018-07-21T08:04:42.777Z,30.18
2018-07-21T08:05:43.048Z,30.76
2018-07-21T08:06:44.450Z,31.26
2018-07-21T08:07:44.388Z,31.44
2018-07-21T08:08:45.029Z,31.82
2018-07-21T08:09:44.333Z,32.23
2018-07-21T08:10:44.292Z,32.21
2018-07-21T08:11:44.058Z,32.61
2018-07-21T08:12:44.085Z,33.67
2018-07-21T08:13:44.618Z,34.05
2018-07-21T08:14:44.367Z,32.06
2018-07-21T08:15:44.822Z,32.85
2018-07-21T08:16:45.136Z,33.06
2018-07-21T08:17:45.624Z,31.21
2018-07-21T08:18:45.370Z,30.43
2018-07-21T08:19:45.882Z,30.55
2018-07-21T08:20:46.053Z,30.46
2018-07-21T08:21:46.458Z,31.29
2018-07-21T08:22:46.314Z,31.01
2018-07-21T08:23:46.076Z,30.71
2018-07-21T08:24:46.135Z,31.31
2018-07-21T08:25:46.890Z,31.82
2018-07-21T08:26:47.085Z,31.07
2018-07-21T08:27:47.450Z,30.47
2018-07-21T08:28:47.768Z,31.62
2018-07-21T08:29:47.525Z,31.71
2018-07-21T08:30:47.819Z,31.42
2018-07-21T08:31:48.012Z,30.96
2018-07-21T08:32:47.902Z,30.69
2018-07-21T08:33:47.912Z,30.97
2018-07-21T08:34:48.877Z,31.18
2018-07-21T08:35:48.794Z,31.3
2018-07-21T08:36:48.816Z,30.62
2018-07-21T08:37:48.856Z,29.82
2018-07-21T08:38:48.788Z,30.52
2018-07-21T08:39:49.266Z,30.22
2018-07-21T08:40:49.675Z,29.24
2018-07-21T08:41:49.632Z,29.44
2018-07-21T08:42:49.577Z,29.46
2018-07-21T08:43:49.662Z,29.97
2018-07-21T08:44:50.165Z,28.5
2018-07-21T08:45:49.838Z,29.6
2018-07-21T08:46:50.108Z,29.81
2018-07-21T08:47:49.751Z,28.03
2018-07-21T08:48:49.942Z,29.39
2018-07-21T08:49:50.465Z,30.16
2018-07-21T08:50:49.739Z,28.97
2018-07-21T08:51:49.840Z,30.11
2018-07-21T08:52:49.973Z,30.09
2018-07-21T08:53:49.855Z,30.26
2018-07-21T08:54:49.805Z,30.76
2018-07-21T08:55:50.362Z,30.28
2018-07-21T08:56:50.163Z,29.99
2018-07-21T08:57:50.428Z,30.19
2018-07-21T08:58:50.847Z,29.91
2018-07-21T08:59:51.053Z,28.33
2018-07-21T09:00:50.784Z,30.09
2018-07-21T09:01:50.908Z,30.11
2018-07-21T09:02:51.422Z,29.72
2018-07-21T09:03:50.905Z,29.55
2018-07-21T09:04:51.601Z,28.38
2018-07-21T09:05:51.404Z,28.69
2018-07-21T09:06:52.047Z,28.58
2018-07-21T09:07:51.307Z,28.97
2018-07-21T09:08:51.215Z,29.72
2018-07-21T09:09:51.599Z,30.12
2018-07-21T09:10:51.547Z,29.84
2018-07-21T09:11:51.738Z,28.94
2018-07-21T09:12:52.503Z,29.99
2018-07-21T09:13:52.649Z,30.69
2018-07-21T09:14:52.271Z,30.11
2018-07-21T09:15:52.209Z,29.39
2018-07-21T09:16:51.942Z,29.8
2018-07-21T09:17:52.323Z,30.55
2018-07-21T09:18:55.718Z,31.62
2018-07-21T09:19:52.073Z,31.63
2018-07-21T09:20:52.527Z,31.05
2018-07-21T09:21:52.580Z,31.27
2018-07-21T09:22:52.767Z,31.12
2018-07-21T09:23:52.806Z,30.24
2018-07-21T09:24:53.324Z,30.33
2018-07-21T09:25:53.941Z,29.72
2018-07-21T09:26:53.995Z,30.3
2018-07-21T09:27:54.045Z,30.68
2018-07-21T09:28:54.056Z,31.45
2018-07-21T09:29:54.192Z,31.74
2018-07-21T09:30:54.171Z,30.55
2018-07-21T09:31:54.385Z,32.28
2018-07-21T09:32:54.524Z,32.06
2018-07-21T09:33:55.229Z,32.83
2018-07-21T09:34:55.123Z,33.31
2018-07-21T09:35:55.003Z,32.43
2018-07-21T09:36:54.942Z,32.43
2018-07-21T09:37:55.501Z,32.93
2018-07-21T09:38:55.853Z,32.96
2018-07-21T09:39:56.710Z,33.06
2018-07-21T09:40:56.436Z,32.86
2018-07-21T09:41:56.549Z,32.09
2018-07-21T09:42:55.982Z,32.98
2018-07-21T09:43:55.975Z,31.57
2018-07-21T09:44:55.789Z,32.83
2018-07-21T09:45:55.807Z,32.93
2018-07-21T09:46:56.125Z,33.09
2018-07-21T09:47:56.869Z,33.89
2018-07-21T09:48:56.853Z,34.08
2018-07-21T09:49:56.792Z,33.9
2018-07-21T09:50:56.857Z,34.01
2018-07-21T09:51:56.848Z,33.64
2018-07-21T09:52:57.213Z,33.56
2018-07-21T09:53:56.610Z,33.77
2018-07-21T09:54:57.191Z,32.7
2018-07-21T09:55:57.573Z,32.89
2018-07-21T09:56:56.992Z,33.61
2018-07-21T09:57:57.020Z,31.13
2018-07-21T09:58:57.360Z,32.1
2018-07-21T09:59:57.411Z,32.18
2018-07-21T10:00:57.499Z,33.07
2018-07-21T10:01:57.208Z,33.78
2018-07-21T10:02:57.541Z,32.42
2018-07-21T10:03:57.589Z,32.42
2018-07-21T10:04:57.651Z,31.74
2018-07-21T10:05:57.639Z,31.23
2018-07-21T10:06:57.729Z,32.21
2018-07-21T10:07:57.719Z,32.61
2018-07-21T10:08:57.881Z,32.68
2018-07-21T10:09:57.639Z,31.81
2018-07-21T10:10:57.674Z,32.86
2018-07-21T10:11:58.128Z,32.07
2018-07-21T10:12:58.073Z,32.88
2018-07-21T10:13:58.931Z,32.21
2018-07-21T10:14:58.710Z,31.04
2018-07-21T10:15:58.514Z,30.35
2018-07-21T10:16:58.706Z,30.62
2018-07-21T10:17:58.770Z,30.9
2018-07-21T10:18:58.810Z,31.65
2018-07-21T10:19:59.067Z,32.43
2018-07-21T10:20:59.390Z,32.27
2018-07-21T10:21:59.982Z,31.21
2018-07-21T10:22:59.491Z,31.84
2018-07-21T10:23:59.862Z,31.45
2018-07-21T10:25:00.023Z,31.17
2018-07-21T10:26:00.776Z,31.77
2018-07-21T10:27:00.377Z,29.69
2018-07-21T10:28:00.412Z,30.02
2018-07-21T10:29:00.470Z,30.52
2018-07-21T10:30:00.256Z,31.23
2018-07-21T10:31:00.698Z,30.27
2018-07-21T10:32:00.571Z,30.88
2018-07-21T10:33:00.617Z,31.09
2018-07-21T10:34:00.804Z,29.9
2018-07-21T10:35:02.456Z,30.71
2018-07-21T10:36:01.417Z,30.59
2018-07-21T10:37:01.133Z,30.28
2018-07-21T10:38:01.207Z,30.13
2018-07-21T10:39:01.200Z,31.87
2018-07-21T10:40:01.564Z,30.66
2018-07-21T10:41:01.326Z,31.69
2018-07-21T10:42:01.335Z,31.56
2018-07-21T10:43:01.618Z,32.75
2018-07-21T10:44:01.633Z,32.15
2018-07-21T10:45:01.831Z,33.06
2018-07-21T10:46:01.515Z,31.29
2018-07-21T10:47:02.101Z,31.76
2018-07-21T10:48:02.356Z,32.93
2018-07-21T10:49:02.929Z,31.76
2018-07-21T10:50:03.325Z,32.25
2018-07-21T10:51:02.948Z,32.27
2018-07-21T10:52:03.442Z,32.07
2018-07-21T10:53:03.332Z,32.75
2018-07-21T10:54:03.659Z,33.98
2018-07-21T10:55:04.258Z,34.84
2018-07-21T10:56:04.675Z,35
2018-07-21T10:57:03.767Z,36.46
2018-07-21T10:58:03.971Z,36.84
2018-07-21T10:59:04.250Z,36.65
2018-07-21T11:00:19.114Z,36.63
2018-07-21T11:01:06.230Z,36.59
2018-07-21T11:02:06.009Z,36.4
2018-07-21T11:03:08.535Z,35.1
2018-07-21T11:04:08.207Z,35.08
2018-07-21T11:05:07.215Z,36.54
2018-07-21T11:06:08.662Z,38.01
2018-07-21T11:07:08.328Z,38.19
2018-07-21T11:08:08.952Z,38.66
2018-07-21T11:09:08.803Z,39.72
2018-07-21T11:10:10.025Z,40
2018-07-21T11:11:09.339Z,38.8
2018-07-21T11:12:07.999Z,40.74
2018-07-21T11:13:08.577Z,41.41
2018-07-21T11:14:08.156Z,41.39
2018-07-21T11:15:08.456Z,41.19
2018-07-21T11:16:08.969Z,41
2018-07-21T11:17:10.487Z,41
2018-07-21T11:18:17.184Z,40.53
2018-07-21T11:19:11.255Z,39.76
2018-07-21T11:20:11.495Z,37.94
2018-07-21T11:21:11.558Z,38.45
2018-07-21T11:22:11.417Z,37.52
2018-07-21T11:23:11.634Z,36.4
2018-07-21T11:24:11.435Z,34.87
2018-07-21T11:25:12.721Z,34.91
2018-07-21T11:26:11.242Z,34.84
2018-07-21T11:27:13.041Z,32.8
2018-07-21T11:28:11.618Z,33.9
2018-07-21T11:29:11.601Z,34.23
2018-07-21T11:30:11.769Z,34.28
2018-07-21T11:31:11.639Z,33.01
2018-07-21T11:32:13.247Z,33.94
2018-07-21T11:33:11.342Z,32.26
2018-07-21T11:34:11.576Z,32.64
2018-07-21T11:35:12.946Z,32.24
2018-07-21T11:36:13.927Z,32.33
2018-07-21T11:37:11.511Z,31.11
2018-07-21T11:38:12.078Z,31.85
2018-07-21T11:39:11.461Z,32.31
2018-07-21T11:40:11.791Z,34.95
2018-07-21T11:41:15.808Z,35.91
2018-07-21T11:42:12.120Z,34.77
2018-07-21T11:43:12.224Z,35.41
2018-07-21T11:44:13.985Z,36.36
2018-07-21T11:45:17.287Z,38.07
2018-07-21T11:46:15.025Z,38.15
2018-07-21T11:47:12.883Z,38.6
2018-07-21T11:48:13.494Z,39.86
2018-07-21T11:49:12.371Z,41.5
2018-07-21T11:50:13.523Z,41.09
2018-07-21T11:51:14.554Z,40.97
2018-07-21T11:52:13.041Z,41.72
2018-07-21T11:53:13.875Z,41.23
2018-07-21T11:54:17.968Z,42.68
2018-07-21T11:55:14.199Z,43.14
2018-07-21T11:56:13.264Z,42.94
2018-07-21T11:57:14.994Z,44.19
2018-07-21T11:58:13.979Z,44.48
2018-07-21T11:59:18.964Z,43.61
2018-07-21T12:00:13.745Z,43
2018-07-21T12:01:13.651Z,43
2018-07-21T12:02:13.763Z,43.02
2018-07-21T12:03:13.730Z,43.68
2018-07-21T12:04:14.049Z,44.38
2018-07-21T12:05:13.945Z,45.26
2018-07-21T12:06:13.819Z,45.56
2018-07-21T12:07:13.879Z,44.19
2018-07-21T12:08:13.920Z,45.56
2018-07-21T12:09:13.695Z,45.44
2018-07-21T12:10:14.270Z,45.54
2018-07-21T12:11:14.286Z,45.34
2018-07-21T12:12:14.041Z,45.05
2018-07-21T12:13:14.909Z,44.78
2018-07-21T12:14:14.556Z,44.97
2018-07-21T12:15:14.608Z,43.39
2018-07-21T12:16:14.915Z,44.66
2018-07-21T12:17:15.214Z,43.39
2018-07-21T12:18:15.233Z,44.95
2018-07-21T12:19:15.214Z,45.15
2018-07-21T12:20:15.899Z,43.78
2018-07-21T12:21:15.864Z,44.56
2018-07-21T12:22:15.918Z,44.38
2018-07-21T12:23:15.963Z,43.22
2018-07-21T12:24:16.060Z,43.29
2018-07-21T12:25:16.547Z,43.49
2018-07-21T12:26:16.776Z,44.56
2018-07-21T12:27:16.636Z,44.83
2018-07-21T12:28:17.034Z,44.34
2018-07-21T12:29:16.870Z,43.95
2018-07-21T12:30:17.147Z,45.42
2018-07-21T12:31:17.444Z,45.54
2018-07-21T12:32:17.447Z,46.1
2018-07-21T12:33:18.034Z,45.34
2018-07-21T12:34:17.821Z,45.51
2018-07-21T12:35:18.092Z,46.2
2018-07-21T12:36:18.136Z,44.83
2018-07-21T12:37:18.147Z,44.83
2018-07-21T12:38:18.203Z,45.39
2018-07-21T12:39:18.234Z,45.1
2018-07-21T12:40:18.543Z,45.2
2018-07-21T12:41:18.867Z,45.49
2018-07-21T12:42:18.930Z,45.49
2018-07-21T12:43:18.911Z,45.39
2018-07-21T12:44:18.947Z,45.78
2018-07-21T12:45:18.934Z,46.37
2018-07-21T12:46:19.771Z,46.27
2018-07-21T12:47:19.350Z,46.66
2018-07-21T12:48:19.717Z,46.56
2018-07-21T12:49:20.187Z,46.76
2018-07-21T12:50:19.807Z,46.76
2018-07-21T12:51:19.754Z,46.27
2018-07-21T12:52:19.774Z,46.66
2018-07-21T12:53:19.566Z,46.37
2018-07-21T12:54:19.872Z,46.05
2018-07-21T12:55:20.184Z,46.44
2018-07-21T12:56:20.321Z,46.61
2018-07-21T12:57:20.374Z,46.61
2018-07-21T12:58:20.156Z,46.03
2018-07-21T12:59:20.592Z,46.4
2018-07-21T13:00:20.527Z,46.59
2018-07-21T13:01:20.535Z,46.88
2018-07-21T13:02:20.288Z,45.91
2018-07-21T13:03:21.704Z,46.5
2018-07-21T13:04:21.491Z,47.25
2018-07-21T13:05:21.209Z,46.78
2018-07-21T13:06:21.712Z,46.47
2018-07-21T13:07:21.803Z,47.56
2018-07-21T13:08:21.810Z,48.44
2018-07-21T13:09:21.874Z,47.86
2018-07-21T13:10:21.851Z,46.78
2018-07-21T13:11:21.831Z,47.86
2018-07-21T13:12:22.179Z,46.91
2018-07-21T13:13:22.270Z,48.17
2018-07-21T13:14:22.269Z,47.98
2018-07-21T13:15:22.582Z,49.24
2018-07-21T13:16:22.458Z,48.36
2018-07-21T13:17:22.403Z,48.25
2018-07-21T13:18:22.385Z,46.98
2018-07-21T13:19:22.770Z,46.69
2018-07-21T13:20:23.148Z,47.56
2018-07-21T13:21:23.740Z,48.15
2018-07-21T13:22:23.862Z,48.36
2018-07-21T13:23:24.485Z,48.44
2018-07-21T13:24:24.477Z,48.17
2018-07-21T13:25:24.505Z,48.46
2018-07-21T13:26:24.570Z,48.56
2018-07-21T13:27:24.318Z,48.36
2018-07-21T13:28:24.634Z,47.59
2018-07-21T13:29:24.685Z,47.2
2018-07-21T13:30:24.699Z,47.3
2018-07-21T13:31:24.744Z,46.81
2018-07-21T13:32:24.830Z,47.52
2018-07-21T13:33:25.455Z,48
2018-07-21T13:34:25.360Z,47.13
2018-07-21T13:35:25.653Z,46.73
2018-07-21T13:36:25.911Z,47.13
2018-07-21T13:37:26.649Z,48.29
2018-07-21T13:38:26.561Z,47.52
2018-07-21T13:39:26.275Z,47.71
2018-07-21T13:40:26.572Z,48.39
2018-07-21T13:41:26.435Z,48.19
2018-07-21T13:42:27.402Z,47.61
2018-07-21T13:43:27.131Z,47.73
2018-07-21T13:44:27.394Z,47.15
2018-07-21T13:45:27.472Z,47.44
2018-07-21T13:46:27.001Z,48.02
2018-07-21T13:47:27.453Z,48.41
2018-07-21T13:48:27.290Z,47.63
2018-07-21T13:49:27.668Z,48.61
2018-07-21T13:50:27.485Z,48.22
2018-07-21T13:51:27.836Z,49
2018-07-21T13:52:27.107Z,48.41
2018-07-21T13:53:27.626Z,48.61
2018-07-21T13:54:27.717Z,49.1
2018-07-21T13:55:27.819Z,49.68
2018-07-21T13:56:27.360Z,47.73
2018-07-21T13:57:27.332Z,46.83
2018-07-21T13:58:27.508Z,48.49
2018-07-21T13:59:27.044Z,48.66
2018-07-21T14:00:27.353Z,48.27
2018-07-21T14:01:27.649Z,48.36
2018-07-21T14:02:27.429Z,46.81
2018-07-21T14:03:28.033Z,47.49
2018-07-21T14:04:28.172Z,47.39
2018-07-21T14:05:28.393Z,47.1
2018-07-21T14:06:28.172Z,47.98
2018-07-21T14:07:27.948Z,48.75
2018-07-21T14:08:28.112Z,49.34
2018-07-21T14:09:28.091Z,49.44
2018-07-21T14:10:28.056Z,48.17
2018-07-21T14:11:28.541Z,46.71
2018-07-21T14:12:28.480Z,47.3
2018-07-21T14:13:28.168Z,48.46
2018-07-21T14:14:27.874Z,48.85
2018-07-21T14:15:28.992Z,48.85
2018-07-21T14:16:28.578Z,49.15
2018-07-21T14:17:28.641Z,48.66
2018-07-21T14:18:28.714Z,49.15
2018-07-21T14:19:28.785Z,49.34
2018-07-21T14:20:28.743Z,50.21
2018-07-21T14:21:28.853Z,49.92
2018-07-21T14:22:28.507Z,49.92
2018-07-21T14:23:29.338Z,50.02
2018-07-21T14:24:29.163Z,49.63
2018-07-21T14:25:29.047Z,49.83
2018-07-21T14:26:28.695Z,49.24
2018-07-21T14:27:29.035Z,49.12
2018-07-21T14:28:29.338Z,48.93
2018-07-21T14:29:30.000Z,49.99
2018-07-21T14:30:29.919Z,49.9
2018-07-21T14:31:29.852Z,50.58
2018-07-21T14:32:29.884Z,49.9
2018-07-21T14:33:30.189Z,50.19
2018-07-21T14:34:30.171Z,49.41
2018-07-21T14:35:30.024Z,49.78
2018-07-21T14:36:30.727Z,50.46
2018-07-21T14:37:30.314Z,51.43
2018-07-21T14:38:30.466Z,51.62
2018-07-21T14:39:30.357Z,51.23
2018-07-21T14:40:29.547Z,51.43
2018-07-21T14:41:30.469Z,51.04
2018-07-21T14:42:30.008Z,50.65
2018-07-21T14:43:30.585Z,50.85
2018-07-21T14:44:30.213Z,50.95
2018-07-21T14:45:30.273Z,51.5
2018-07-21T14:46:30.333Z,52.09
2018-07-21T14:47:30.741Z,50.75
2018-07-21T14:48:30.790Z,51.5
2018-07-21T14:49:31.051Z,51.31
2018-07-21T14:50:30.874Z,51.21
2018-07-21T14:51:31.174Z,51.5
2018-07-21T14:52:31.239Z,50.43
2018-07-21T14:53:31.468Z,50.14
2018-07-21T14:54:32.214Z,51.01
2018-07-21T14:55:32.138Z,51.04
2018-07-21T14:56:32.187Z,50.75
2018-07-21T14:57:31.933Z,52.01
2018-07-21T14:58:32.192Z,52.11
2018-07-21T14:59:31.981Z,49.87
2018-07-21T15:00:32.321Z,50.46
2018-07-21T15:01:32.732Z,50.26
2018-07-21T15:02:32.805Z,51.23
2018-07-21T15:03:32.710Z,52.5
2018-07-21T15:04:32.677Z,51.72
2018-07-21T15:05:33.220Z,50.36
2018-07-21T15:06:32.623Z,49.85
2018-07-21T15:07:32.677Z,50.04
2018-07-21T15:08:33.057Z,49.95
2018-07-21T15:09:33.128Z,50.34
2018-07-21T15:10:33.114Z,49.85
2018-07-21T15:11:33.260Z,50.43
2018-07-21T15:12:33.215Z,50.53
2018-07-21T15:13:33.236Z,51.21
2018-07-21T15:14:33.621Z,51.21
2018-07-21T15:15:33.667Z,51.31
2018-07-21T15:16:33.804Z,51.01
2018-07-21T15:17:33.953Z,49.95
2018-07-21T15:18:33.935Z,51.6
2018-07-21T15:19:33.956Z,51.31
2018-07-21T15:20:33.737Z,49.85
2018-07-21T15:21:33.766Z,51.21
2018-07-21T15:22:34.112Z,51.09
2018-07-21T15:23:34.174Z,50.63
2018-07-21T15:24:34.199Z,51.09
2018-07-21T15:25:34.203Z,51.57
2018-07-21T15:26:34.361Z,52.25
2018-07-21T15:27:34.379Z,52.35
2018-07-21T15:28:34.393Z,52.06
2018-07-21T15:29:34.354Z,52.74
2018-07-21T15:30:34.591Z,52.45
2018-07-21T15:31:34.571Z,53.03
2018-07-21T15:32:34.336Z,52.25
2018-07-21T15:33:34.642Z,51.28
2018-07-21T15:34:34.821Z,52.15
2018-07-21T15:35:34.826Z,50.99
2018-07-21T15:36:34.863Z,51.38
2018-07-21T15:37:35.096Z,50.99
2018-07-21T15:38:35.127Z,50.89
2018-07-21T15:39:35.177Z,52.25
2018-07-21T15:40:35.464Z,51.75
2018-07-21T15:41:35.600Z,51.55
2018-07-21T15:42:36.273Z,51.18
2018-07-21T15:43:36.260Z,50.89
2018-07-21T15:44:36.285Z,51.35
2018-07-21T15:45:36.379Z,52.84
2018-07-21T15:46:36.203Z,52.64
2018-07-21T15:47:36.559Z,53.1
2018-07-21T15:48:36.557Z,53.3
2018-07-21T15:49:36.607Z,53.39
2018-07-21T15:50:36.846Z,52.72
2018-07-21T15:51:36.974Z,53.3
2018-07-21T15:52:37.366Z,53.1
2018-07-21T15:53:37.091Z,53.1
2018-07-21T15:54:37.399Z,53.1
2018-07-21T15:55:37.517Z,52.52
2018-07-21T15:56:37.610Z,52.62
2018-07-21T15:57:37.722Z,51.72
2018-07-21T15:58:38.503Z,52.78
2018-07-21T15:59:38.931Z,51.72
2018-07-21T16:00:39.546Z,52.3
2018-07-21T16:01:39.660Z,52.11
2018-07-21T16:02:39.868Z,53.08
2018-07-21T16:03:39.470Z,53.66
2018-07-21T16:04:39.811Z,54.14
2018-07-21T16:05:39.684Z,54.72
2018-07-21T16:06:39.871Z,53.75
2018-07-21T16:07:39.627Z,53.56
2018-07-21T16:08:40.459Z,53.66
2018-07-21T16:09:40.473Z,52.98
2018-07-21T16:10:40.370Z,53.08
2018-07-21T16:11:40.453Z,52.88
2018-07-21T16:12:40.473Z,53.85
2018-07-21T16:13:40.536Z,53.08
2018-07-21T16:14:40.651Z,52.98
2018-07-21T16:15:40.634Z,52.98
2018-07-21T16:16:40.753Z,52.5
2018-07-21T16:17:40.781Z,52.78
2018-07-21T16:18:41.094Z,52.88
2018-07-21T16:19:40.851Z,53.08
2018-07-21T16:20:41.175Z,53.08
2018-07-21T16:21:41.218Z,53.08
2018-07-21T16:22:40.991Z,53.56
2018-07-21T16:23:41.364Z,54.82
2018-07-21T16:24:41.403Z,53.75
2018-07-21T16:25:41.241Z,53.66
2018-07-21T16:26:41.549Z,53.27
2018-07-21T16:27:41.494Z,52.59
2018-07-21T16:28:41.524Z,53.56
2018-07-21T16:29:41.671Z,52.78
2018-07-21T16:30:42.153Z,52.69
2018-07-21T16:31:42.064Z,52.69
2018-07-21T16:32:41.491Z,53.08
2018-07-21T16:33:42.158Z,53.17
2018-07-21T16:34:43.098Z,53.56
2018-07-21T16:35:43.219Z,53.37
2018-07-21T16:36:43.504Z,53.24
2018-07-21T16:37:43.512Z,53.53
2018-07-21T16:38:43.783Z,53.73
2018-07-21T16:39:44.718Z,54.41
2018-07-21T16:40:44.404Z,53.73
2018-07-21T16:41:44.491Z,53.73
2018-07-21T16:42:44.072Z,53.24
2018-07-21T16:43:44.515Z,53.73
2018-07-21T16:44:44.568Z,53.34
2018-07-21T16:45:44.759Z,53.92
2018-07-21T16:46:44.438Z,54.21
2018-07-21T16:47:44.504Z,54.7
2018-07-21T16:48:44.593Z,54.58
2018-07-21T16:49:44.843Z,55.16
2018-07-21T16:50:44.874Z,53.8
2018-07-21T16:51:44.909Z,53.99
2018-07-21T16:52:45.017Z,54.09
2018-07-21T16:53:45.024Z,53.89
2018-07-21T16:54:44.395Z,54.19
2018-07-21T16:55:44.825Z,54.48
2018-07-21T16:56:45.278Z,55.06
2018-07-21T16:57:44.465Z,54.96
2018-07-21T16:58:44.889Z,54.48
2018-07-21T16:59:44.600Z,54.58
2018-07-21T17:00:44.602Z,55.16
2018-07-21T17:01:44.788Z,55.93
2018-07-21T17:02:45.011Z,56.71
2018-07-21T17:03:44.672Z,55.64
2018-07-21T17:04:45.121Z,55.74
2018-07-21T17:05:45.550Z,55.93
2018-07-21T17:06:45.557Z,57.09
2018-07-21T17:07:45.673Z,55.83
2018-07-21T17:08:45.261Z,55.64
2018-07-21T17:09:45.536Z,55.93
2018-07-21T17:10:45.830Z,55.74
2018-07-21T17:11:45.936Z,55.44
2018-07-21T17:12:45.629Z,55.44
2018-07-21T17:13:46.448Z,55.74
2018-07-21T17:14:46.467Z,55.64
2018-07-21T17:15:46.510Z,56.51
2018-07-21T17:16:46.463Z,56.23
2018-07-21T17:17:46.995Z,55.93
2018-07-21T17:18:46.829Z,55.93
2018-07-21T17:19:46.844Z,56.32
2018-07-21T17:20:47.149Z,56.32
2018-07-21T17:21:47.524Z,56.81
2018-07-21T17:22:47.543Z,56.9
2018-07-21T17:23:47.789Z,57.48
2018-07-21T17:24:47.321Z,56.9
2018-07-21T17:25:47.804Z,57.68
2018-07-21T17:26:47.776Z,57.68
2018-07-21T17:27:48.422Z,58.36
2018-07-21T17:28:48.444Z,57.68
2018-07-21T17:29:48.685Z,56.77
2018-07-21T17:30:48.535Z,56.61
2018-07-21T17:31:48.582Z,57.19
2018-07-21T17:32:48.335Z,57.26
2018-07-21T17:33:49.103Z,57.45
2018-07-21T17:34:49.554Z,57.65
2018-07-21T17:35:49.692Z,57.45
2018-07-21T17:36:49.575Z,57.55
2018-07-21T17:37:49.752Z,57.55
2018-07-21T17:38:50.081Z,57.65
2018-07-21T17:39:50.134Z,58.42
2018-07-21T17:40:50.155Z,58.04
2018-07-21T17:41:50.627Z,57.75
2018-07-21T17:42:51.263Z,58.23
2018-07-21T17:43:51.223Z,58.23
2018-07-21T17:44:51.605Z,58.23
2018-07-21T17:45:51.242Z,58.52
2018-07-21T17:46:51.557Z,58.91
2018-07-21T17:47:51.592Z,58.81
2018-07-21T17:48:51.560Z,59.49
2018-07-21T17:49:52.285Z,58.52
2018-07-21T17:50:52.358Z,58.52
2018-07-21T17:51:52.346Z,58.23
2018-07-21T17:52:52.496Z,57.94
2018-07-21T17:53:52.673Z,57.53
2018-07-21T17:54:52.965Z,57.65
2018-07-21T17:55:53.414Z,57.62
2018-07-21T17:56:53.206Z,57.71
2018-07-21T17:57:53.553Z,58.01
2018-07-21T17:58:53.555Z,57.71
2018-07-21T17:59:53.966Z,58.39
2018-07-21T18:00:55.182Z,58.49
2018-07-21T18:01:55.737Z,58.49
2018-07-21T18:02:55.013Z,58.2
2018-07-21T18:03:55.620Z,58.39
2018-07-21T18:04:54.983Z,58.39
2018-07-21T18:05:55.138Z,58.52
2018-07-21T18:06:56.564Z,59.17
2018-07-21T18:07:56.470Z,58.88
2018-07-21T18:08:57.062Z,58.49
2018-07-21T18:09:57.025Z,58.78
2018-07-21T18:10:56.113Z,59.36
2018-07-21T18:11:57.245Z,59.36
2018-07-21T18:12:55.653Z,59.56
2018-07-21T18:13:56.451Z,59.27
2018-07-21T18:14:57.125Z,59.94
2018-07-21T18:15:55.629Z,60.24
2018-07-21T18:17:08.445Z,60.24
2018-07-21T18:18:38.257Z,59.84
2018-07-21T18:19:39.445Z,59.94
2018-07-21T18:20:40.397Z,60.43
2018-07-21T18:21:39.384Z,59.75
2018-07-21T18:22:42.915Z,60.4
2018-07-21T18:23:39.817Z,59.72
2018-07-21T18:24:39.642Z,60.5
2018-07-21T18:25:40.050Z,60.69
2018-07-21T18:26:39.645Z,60.59
2018-07-21T18:27:39.415Z,60.69
